Time;durP1;ratioP1;P1;durP2;ratioP2;P2;SDS_P1;SDS_P2;PMS_P1;PMS_P2;Temp;Humidity;BMP_temperature;BMP_pressure;BME280_temperature;BME280_humidity;BME280_pressure;Samples;Min_cycle;Max_cycle;Signal;HPM_P1;HPM_P2
2022/03/16 00:02:01;;;;;;;14.07;5.43;;;;;;;;;;5035581;28;20110;-56
2022/03/16 00:04:29;;;;;;;9.57;4.85;;;;;;;;;;5065531;28;20060;-56
2022/03/16 00:06:56;;;;;;;10.60;4.60;;;;;;;;;;5054996;28;20048;-55
2022/03/16 00:09:22;;;;;;;10.38;5.10;;;;;;;;;;5045139;28;20056;-56
2022/03/16 00:11:49;;;;;;;14.32;6.05;;;;;;;;;;5046724;28;20056;-54
2022/03/16 00:14:16;;;;;;;10.27;4.55;;;;;;;;;;5065782;28;20052;-59
2022/03/16 00:16:42;;;;;;;10.23;4.95;;;;;;;;;;5060531;28;20044;-56
2022/03/16 00:19:09;;;;;;;14.70;5.97;;;;;;;;;;5032747;28;20052;-57
2022/03/16 00:21:37;;;;;;;11.82;5.22;;;;;;;;;;5046723;28;20122;-54
2022/03/16 00:24:04;;;;;;;15.02;7.13;;;;;;;;;;5053636;28;20048;-57
2022/03/16 00:26:30;;;;;;;13.27;5.32;;;;;;;;;;5064871;28;20056;-55
2022/03/16 00:28:57;;;;;;;13.15;6.50;;;;;;;;;;5048535;28;20068;-61
2022/03/16 00:31:23;;;;;;;12.63;5.85;;;;;;;;;;5049791;28;20056;-55
2022/03/16 00:33:50;;;;;;;15.10;6.40;;;;;;;;;;5044299;28;20049;-63
2022/03/16 00:36:17;;;;;;;11.73;5.80;;;;;;;;;;5049589;28;20056;-62
2022/03/16 00:38:45;;;;;;;15.52;7.07;;;;;;;;;;5040901;28;20050;-53
2022/03/16 00:41:12;;;;;;;10.65;5.30;;;;;;;;;;5037780;28;20060;-51
2022/03/16 00:43:40;;;;;;;13.90;5.50;;;;;;;;;;5024256;28;20064;-55
2022/03/16 00:46:06;;;;;;;11.38;5.70;;;;;;;;;;5030117;28;20068;-56
2022/03/16 00:48:33;;;;;;;11.90;5.97;;;;;;;;;;5031246;28;20053;-52
2022/03/16 00:50:59;;;;;;;16.50;8.13;;;;;;;;;;5046800;28;20128;-49
2022/03/16 00:53:28;;;;;;;11.90;5.65;;;;;;;;;;5032636;28;20049;-53
2022/03/16 00:55:54;;;;;;;;;;;;;;;;;;5051568;28;19947;-49
2022/03/16 00:58:24;;;;;;;12.55;5.43;;;;;;;;;;5060489;28;20043;-56
2022/03/16 01:00:50;;;;;;;16.00;6.63;;;;;;;;;;5048820;28;20049;-54
2022/03/16 01:03:17;;;;;;;15.52;6.20;;;;;;;;;;5055591;28;20063;-53
2022/03/16 01:05:45;;;;;;;13.32;6.45;;;;;;;;;;5028564;28;20057;-53
2022/03/16 01:08:11;;;;;;;11.95;6.05;;;;;;;;;;5023405;28;20062;-56
2022/03/16 01:10:38;;;;;;;20.67;8.23;;;;;;;;;;5028255;28;20049;-60
2022/03/16 01:13:05;;;;;;;14.63;6.35;;;;;;;;;;5028728;28;20064;-50
2022/03/16 01:15:33;;;;;;;15.38;6.03;;;;;;;;;;5041064;28;20102;-50
2022/03/16 01:18:00;;;;;;;17.95;7.40;;;;;;;;;;5047893;28;20103;-56
2022/03/16 01:20:26;;;;;;;13.45;5.57;;;;;;;;;;5042551;28;20068;-51
2022/03/16 01:22:55;;;;;;;12.75;5.60;;;;;;;;;;5048306;28;20134;-55
2022/03/16 01:25:21;;;;;;;;;;;;;;;;;;5042934;28;20079;-55
2022/03/16 01:27:48;;;;;;;20.67;7.70;;;;;;;;;;5061852;28;19932;-57
2022/03/16 01:30:15;;;;;;;17.98;7.13;;;;;;;;;;5041289;28;20111;-58
2022/03/16 01:32:43;;;;;;;19.83;8.18;;;;;;;;;;5047804;28;20049;-53
2022/03/16 01:35:10;;;;;;;15.35;6.40;;;;;;;;;;5040688;28;20071;-55
2022/03/16 01:37:37;;;;;;;13.45;6.43;;;;;;;;;;5047906;28;20053;-55
2022/03/16 01:40:05;;;;;;;16.83;6.70;;;;;;;;;;5035856;28;20065;-55
2022/03/16 01:42:32;;;;;;;17.65;6.82;;;;;;;;;;5027886;28;20119;-62
2022/03/16 01:44:59;;;;;;;12.48;6.22;;;;;;;;;;5022225;28;20064;-64
2022/03/16 01:47:26;;;;;;;12.95;5.55;;;;;;;;;;5011242;28;20131;-51
2022/03/16 01:49:55;;;;;;;17.95;7.80;;;;;;;;;;5023442;28;20107;-59
2022/03/16 01:52:23;;;;;;;15.95;7.20;;;;;;;;;;5048443;28;20059;-58
2022/03/16 01:54:50;;;;;;;14.77;6.30;;;;;;;;;;5030914;28;20130;-53
2022/03/16 01:57:17;;;;;;;13.55;5.85;;;;;;;;;;5041456;28;20049;-58
2022/03/16 01:59:44;;;;;;;12.05;5.85;;;;;;;;;;5047394;28;20049;-57
2022/03/16 02:02:11;;;;;;;14.68;6.35;;;;;;;;;;5025263;28;20045;-54
2022/03/16 02:04:38;;;;;;;13.60;6.07;;;;;;;;;;5011596;28;20094;-56
2022/03/16 02:07:06;;;;;;;13.80;6.57;;;;;;;;;;5036474;28;20041;-53
2022/03/16 02:09:34;;;;;;;15.77;6.25;;;;;;;;;;5038956;28;20053;-53
2022/03/16 02:12:01;;;;;;;13.75;6.55;;;;;;;;;;5005912;28;20068;-55
2022/03/16 02:14:28;;;;;;;16.23;7.63;;;;;;;;;;5027359;28;20045;-54
2022/03/16 02:16:57;;;;;;;21.00;7.65;;;;;;;;;;5031363;28;20052;-53
2022/03/16 02:19:23;;;;;;;19.50;8.40;;;;;;;;;;5048095;28;20056;-53
2022/03/16 02:21:55;;;;;;;16.20;6.93;;;;;;;;;;5036835;28;20112;-60
2022/03/16 02:24:23;;;;;;;23.25;9.05;;;;;;;;;;5009274;28;20061;-58
2022/03/16 02:26:50;;;;;;;17.23;6.63;;;;;;;;;;5011388;28;20056;-61
2022/03/16 02:29:17;;;;;;;19.88;8.13;;;;;;;;;;5046962;28;20106;-53
2022/03/16 02:31:44;;;;;;;15.35;6.20;;;;;;;;;;5040640;28;20106;-58
2022/03/16 02:34:10;;;;;;;19.83;7.53;;;;;;;;;;5030945;28;20065;-58
2022/03/16 02:36:37;;;;;;;18.00;7.43;;;;;;;;;;5041136;28;20153;-55
2022/03/16 02:39:03;;;;;;;13.45;6.88;;;;;;;;;;5046142;28;20056;-61
2022/03/16 02:41:31;;;;;;;19.00;7.63;;;;;;;;;;5029807;28;20059;-56
2022/03/16 02:43:58;;;;;;;18.55;7.50;;;;;;;;;;5023687;28;20122;-53
2022/03/16 02:46:25;;;;;;;15.73;6.75;;;;;;;;;;5046228;28;20081;-52
2022/03/16 02:48:51;;;;;;;20.25;8.57;;;;;;;;;;5008888;28;20059;-59
2022/03/16 02:51:18;;;;;;;19.00;8.68;;;;;;;;;;5010070;28;20057;-59
2022/03/16 02:53:45;;;;;;;14.57;6.45;;;;;;;;;;5017298;28;20064;-58
2022/03/16 02:56:12;;;;;;;16.60;7.03;;;;;;;;;;5046275;28;20067;-60
2022/03/16 02:58:40;;;;;;;16.73;7.30;;;;;;;;;;5029857;28;20064;-60
2022/03/16 03:01:06;;;;;;;22.80;9.65;;;;;;;;;;5007261;28;20053;-58
2022/03/16 03:03:33;;;;;;;16.70;8.38;;;;;;;;;;5004670;28;20059;-61
2022/03/16 03:06:00;;;;;;;16.27;7.22;;;;;;;;;;5025233;28;20116;-57
2022/03/16 03:08:27;;;;;;;16.45;6.72;;;;;;;;;;5025827;28;20057;-61
2022/03/16 03:10:53;;;;;;;19.20;8.50;;;;;;;;;;5029802;28;20053;-52
2022/03/16 03:13:20;;;;;;;16.25;7.32;;;;;;;;;;5038350;28;20073;-56
2022/03/16 03:15:48;;;;;;;21.05;10.10;;;;;;;;;;5043312;28;20060;-55
2022/03/16 03:18:14;;;;;;;17.00;7.80;;;;;;;;;;5038214;28;20092;-54
2022/03/16 03:20:41;;;;;;;14.02;6.45;;;;;;;;;;5010614;28;20052;-52
2022/03/16 03:23:08;;;;;;;18.50;7.72;;;;;;;;;;5009044;28;20060;-51
2022/03/16 03:25:34;;;;;;;22.75;10.32;;;;;;;;;;5022643;28;20049;-51
2022/03/16 03:28:01;;;;;;;16.88;8.18;;;;;;;;;;5046302;28;20064;-51
2022/03/16 03:30:27;;;;;;;21.40;8.60;;;;;;;;;;5025185;28;20052;-54
2022/03/16 03:32:58;;;;;;;18.10;7.30;;;;;;;;;;5010865;28;20045;-54
2022/03/16 03:35:24;;;;;;;15.32;7.25;;;;;;;;;;5017773;28;20056;-61
2022/03/16 03:37:54;;;;;;;25.25;9.40;;;;;;;;;;5038202;28;20063;-52
2022/03/16 03:40:21;;;;;;;16.17;7.90;;;;;;;;;;5054198;28;20139;-55
2022/03/16 03:42:48;;;;;;;15.63;7.47;;;;;;;;;;5066646;28;20049;-62
2022/03/16 03:45:15;;;;;;;18.80;7.32;;;;;;;;;;5059636;28;20053;-53
2022/03/16 03:47:42;;;;;;;14.35;6.90;;;;;;;;;;5067051;28;20125;-54
2022/03/16 03:50:11;;;;;;;13.20;6.60;;;;;;;;;;5061212;28;20067;-53
2022/03/16 03:52:38;;;;;;;15.20;7.22;;;;;;;;;;5071310;28;20124;-56
2022/03/16 03:55:05;;;;;;;23.48;9.13;;;;;;;;;;5033495;28;20052;-51
2022/03/16 03:57:32;;;;;;;18.20;7.63;;;;;;;;;;5069982;28;20076;-52
2022/03/16 03:59:58;;;;;;;16.80;7.05;;;;;;;;;;5046710;28;20067;-58
2022/03/16 04:02:25;;;;;;;22.25;8.82;;;;;;;;;;5070223;28;20056;-55
2022/03/16 04:04:52;;;;;;;26.88;9.13;;;;;;;;;;5069759;28;20052;-56
2022/03/16 04:07:19;;;;;;;20.60;9.52;;;;;;;;;;5044978;28;20144;-51
2022/03/16 04:09:46;;;;;;;20.13;8.90;;;;;;;;;;5037129;28;20059;-57
2022/03/16 04:12:13;;;;;;;15.50;6.68;;;;;;;;;;5063553;28;20307;-61
2022/03/16 04:14:40;;;;;;;17.17;6.97;;;;;;;;;;5069798;28;20056;-57
2022/03/16 04:17:06;;;;;;;19.73;7.85;;;;;;;;;;5046153;28;20057;-57
2022/03/16 04:19:33;;;;;;;19.38;8.32;;;;;;;;;;5013648;28;20137;-61
2022/03/16 04:22:01;;;;;;;17.33;7.72;;;;;;;;;;5030757;28;20056;-53
2022/03/16 04:24:29;;;;;;;17.77;8.30;;;;;;;;;;5069398;28;20059;-53
2022/03/16 04:26:55;;;;;;;15.97;7.50;;;;;;;;;;5062862;28;20302;-60
2022/03/16 04:29:22;;;;;;;19.83;7.95;;;;;;;;;;5069657;28;20344;-60
2022/03/16 04:31:49;;;;;;;16.23;7.72;;;;;;;;;;5056151;28;20057;-58
2022/03/16 04:34:15;;;;;;;16.75;8.80;;;;;;;;;;5049250;28;20104;-62
2022/03/16 04:36:42;;;;;;;18.92;8.32;;;;;;;;;;5040380;28;20073;-55
2022/03/16 04:39:09;;;;;;;17.38;7.18;;;;;;;;;;5009099;28;20049;-51
2022/03/16 04:41:38;;;;;;;20.48;9.05;;;;;;;;;;5018475;28;20053;-58
2022/03/16 04:44:05;;;;;;;21.85;8.30;;;;;;;;;;5029360;28;20201;-50
2022/03/16 04:46:31;;;;;;;20.10;8.55;;;;;;;;;;5029420;28;20069;-54
2022/03/16 04:48:58;;;;;;;19.40;7.30;;;;;;;;;;5042479;28;20080;-54
2022/03/16 04:51:24;;;;;;;18.52;7.55;;;;;;;;;;5029372;28;20050;-57
2022/03/16 04:53:51;;;;;;;16.67;7.40;;;;;;;;;;5023665;28;20061;-51
2022/03/16 04:56:18;;;;;;;15.90;8.10;;;;;;;;;;5028782;28;20049;-54
2022/03/16 04:58:46;;;;;;;14.80;6.47;;;;;;;;;;5023277;28;20053;-57
2022/03/16 05:01:12;;;;;;;14.82;6.75;;;;;;;;;;5028100;28;20049;-59
2022/03/16 05:03:41;;;;;;;24.25;9.23;;;;;;;;;;5023135;28;20055;-57
2022/03/16 05:06:08;;;;;;;13.05;6.80;;;;;;;;;;5040650;28;20053;-55
2022/03/16 05:08:36;;;;;;;21.13;8.70;;;;;;;;;;5024115;28;20076;-55
2022/03/16 05:11:03;;;;;;;20.05;7.70;;;;;;;;;;5045581;28;20135;-53
2022/03/16 05:13:33;;;;;;;22.77;8.73;;;;;;;;;;5022941;28;20045;-58
2022/03/16 05:16:01;;;;;;;19.42;8.15;;;;;;;;;;5028330;28;20130;-56
2022/03/16 05:18:27;;;;;;;17.83;8.60;;;;;;;;;;5024063;28;20107;-50
2022/03/16 05:20:54;;;;;;;20.08;9.00;;;;;;;;;;5031288;28;20117;-51
2022/03/16 05:23:22;;;;;;;17.40;7.22;;;;;;;;;;5024634;28;20050;-62
2022/03/16 05:25:48;;;;;;;19.55;7.82;;;;;;;;;;5045265;28;20057;-53
2022/03/16 05:28:16;;;;;;;14.48;6.47;;;;;;;;;;5040473;28;20060;-56
2022/03/16 05:30:43;;;;;;;15.75;6.88;;;;;;;;;;5044641;28;20053;-54
2022/03/16 05:33:11;;;;;;;17.50;7.38;;;;;;;;;;5044567;28;20063;-59
2022/03/16 05:35:39;;;;;;;14.48;6.35;;;;;;;;;;5023924;28;20064;-60
2022/03/16 05:38:07;;;;;;;16.98;7.22;;;;;;;;;;5044358;28;20056;-58
2022/03/16 05:40:34;;;;;;;20.58;7.93;;;;;;;;;;5005807;28;20092;-52
2022/03/16 05:43:01;;;;;;;16.25;7.57;;;;;;;;;;5024952;28;20062;-55
2022/03/16 05:45:28;;;;;;;16.48;7.38;;;;;;;;;;5015261;28;20119;-52
2022/03/16 05:47:54;;;;;;;19.30;7.55;;;;;;;;;;5026052;28;20057;-60
2022/03/16 05:50:24;;;;;;;15.60;7.28;;;;;;;;;;5021178;28;20057;-62
2022/03/16 05:52:51;;;;;;;14.77;6.03;;;;;;;;;;5027473;28;20088;-62
2022/03/16 05:55:18;;;;;;;16.17;7.13;;;;;;;;;;5013856;28;20058;-58
2022/03/16 05:57:45;;;;;;;17.80;6.95;;;;;;;;;;5042325;28;20049;-58
2022/03/16 09:01:33;;;;;;;13.52;4.43;;;;;;;;;;5051798;22;20143;-57
2022/03/16 09:04:01;;;;;;;4.72;2.58;;;;;;;;;;5050770;28;20117;-60
2022/03/16 09:06:28;;;;;;;13.80;6.05;;;;;;;;;;5031953;28;20048;-56
2022/03/16 09:08:55;;;;;;;8.88;2.58;;;;;;;;;;5034032;28;20048;-59
2022/03/16 09:11:22;;;;;;;13.07;4.93;;;;;;;;;;5028200;28;20052;-60
2022/03/16 09:13:48;;;;;;;8.90;4.05;;;;;;;;;;5053147;28;20042;-55
2022/03/16 09:16:15;;;;;;;12.27;5.07;;;;;;;;;;5045660;28;20445;-55
2022/03/16 09:18:54;;;;;;;12.27;5.07;;;;;;;;;;5025473;28;20045;-53
2022/03/16 09:21:21;;;;;;;15.13;5.32;;;;;;;;;;5033255;28;20057;-57
2022/03/16 09:23:50;;;;;;;12.60;4.95;;;;;;;;;;5044783;28;20052;-57
2022/03/16 09:26:16;;;;;;;8.77;3.88;;;;;;;;;;5053175;28;20114;-63
2022/03/16 09:28:45;;;;;;;7.78;3.33;;;;;;;;;;5031632;28;20049;-56
2022/03/16 09:31:12;;;;;;;13.73;5.47;;;;;;;;;;5034158;28;20063;-59
2022/03/16 09:33:40;;;;;;;9.55;4.30;;;;;;;;;;5029219;28;20118;-59
2022/03/16 09:36:09;;;;;;;7.32;3.47;;;;;;;;;;5040690;28;20056;-63
2022/03/16 09:38:36;;;;;;;19.02;4.18;;;;;;;;;;5035426;28;20059;-58
2022/03/16 09:41:03;;;;;;;7.18;3.20;;;;;;;;;;5050949;28;20056;-55
2022/03/16 09:43:32;;;;;;;12.45;4.47;;;;;;;;;;5038224;28;20063;-53
2022/03/16 09:46:03;;;;;;;15.05;6.50;;;;;;;;;;5033751;28;20053;-56
2022/03/16 09:48:31;;;;;;;13.25;5.40;;;;;;;;;;5032592;28;20053;-57
2022/03/16 09:50:58;;;;;;;11.73;5.07;;;;;;;;;;5031864;28;20172;-56
2022/03/16 09:53:28;;;;;;;13.48;5.47;;;;;;;;;;5029175;28;20052;-57
2022/03/16 09:55:54;;;;;;;12.80;5.80;;;;;;;;;;5032634;28;20053;-57
2022/03/16 09:58:21;;;;;;;13.65;5.65;;;;;;;;;;5024126;28;20053;-58
2022/03/16 10:00:49;;;;;;;11.70;3.63;;;;;;;;;;5049558;28;20049;-54
2022/03/16 10:03:16;;;;;;;14.45;5.82;;;;;;;;;;5045779;28;20110;-51
2022/03/16 10:05:44;;;;;;;16.35;5.90;;;;;;;;;;5027185;28;20038;-56
2022/03/16 10:08:14;;;;;;;11.63;4.45;;;;;;;;;;5046590;28;20052;-56
2022/03/16 10:13:26;;;;;;;9.55;4.22;;;;;;;;;;5031933;28;20057;-55
2022/03/16 10:15:55;;;;;;;11.32;5.28;;;;;;;;;;5039891;28;20045;-54
2022/03/16 10:18:23;;;;;;;10.75;4.50;;;;;;;;;;5050851;28;20160;-60
2022/03/16 10:20:55;;;;;;;12.52;5.70;;;;;;;;;;5028636;28;20142;-58
2022/03/16 10:23:28;;;;;;;15.63;5.65;;;;;;;;;;5032044;28;20107;-49
2022/03/16 10:26:00;;;;;;;14.30;5.85;;;;;;;;;;5029176;28;20060;-57
2022/03/16 10:28:29;;;;;;;10.63;4.90;;;;;;;;;;5042082;28;20040;-53
2022/03/16 10:30:57;;;;;;;11.38;4.97;;;;;;;;;;5042556;28;20101;-57
2022/03/16 10:33:24;;;;;;;17.48;6.43;;;;;;;;;;5052181;28;20045;-57
2022/03/16 10:35:55;;;;;;;12.70;5.22;;;;;;;;;;5033977;28;20045;-56
2022/03/16 10:38:22;;;;;;;14.23;6.10;;;;;;;;;;5032489;28;20045;-55
2022/03/16 10:40:50;;;;;;;13.20;5.38;;;;;;;;;;5028127;28;20053;-53
2022/03/16 10:49:00;;;;;;;9.20;4.07;;;;;;;;;;5032789;28;20051;-56
2022/03/16 10:51:30;;;;;;;12.25;4.55;;;;;;;;;;5034206;28;20060;-56
2022/03/16 10:53:58;;;;;;;12.55;4.43;;;;;;;;;;5051900;28;20056;-53
2022/03/16 10:56:25;;;;;;;17.42;4.75;;;;;;;;;;5060433;28;20114;-53
2022/03/16 10:58:54;;;;;;;10.90;5.10;;;;;;;;;;5052370;28;20056;-54
2022/03/16 11:01:22;;;;;;;10.13;4.57;;;;;;;;;;5045085;28;20095;-57
2022/03/16 11:03:53;;;;;;;9.57;3.88;;;;;;;;;;5052418;28;20048;-55
2022/03/16 11:06:22;;;;;;;10.48;5.35;;;;;;;;;;5037029;28;20045;-59
2022/03/16 11:08:49;;;;;;;11.15;4.45;;;;;;;;;;5035075;28;20068;-57
2022/03/16 11:14:06;;;;;;;14.07;5.40;;;;;;;;;;5032214;28;20073;-55
2022/03/16 11:16:33;;;;;;;9.90;4.70;;;;;;;;;;5040334;28;20053;-57
2022/03/16 11:19:01;;;;;;;8.85;3.72;;;;;;;;;;5047447;28;20049;-57
2022/03/16 11:21:31;;;;;;;11.55;4.63;;;;;;;;;;5043115;28;20106;-52
2022/03/16 11:27:09;;;;;;;9.38;4.10;;;;;;;;;;5023267;28;20077;-56
2022/03/16 11:29:49;;;;;;;10.50;4.03;;;;;;;;;;5016106;28;20057;-58
2022/03/16 11:32:18;;;;;;;10.57;4.40;;;;;;;;;;5012869;28;20040;-54
2022/03/16 11:34:50;;;;;;;9.50;4.47;;;;;;;;;;5031957;28;20053;-59
2022/03/16 11:37:18;;;;;;;12.63;5.15;;;;;;;;;;5023454;28;20041;-57
2022/03/16 11:39:45;;;;;;;10.52;5.03;;;;;;;;;;5019865;28;20079;-53
2022/03/16 11:42:15;;;;;;;11.52;5.05;;;;;;;;;;5006352;28;20225;-51
2022/03/16 11:44:43;;;;;;;7.57;3.28;;;;;;;;;;5041635;28;20049;-55
2022/03/16 11:47:10;;;;;;;;;;;;;;;;;;5049353;28;20071;-55
2022/03/16 11:49:38;;;;;;;10.30;3.97;;;;;;;;;;5044476;28;19928;-56
2022/03/16 11:52:08;;;;;;;10.48;3.60;;;;;;;;;;5051178;28;20057;-57
2022/03/16 11:54:45;;;;;;;10.80;5.25;;;;;;;;;;5039994;28;20140;-58
2022/03/16 11:57:14;;;;;;;5.85;2.80;;;;;;;;;;5031636;28;20060;-58
2022/03/16 11:59:45;;;;;;;10.35;3.88;;;;;;;;;;5034353;28;20136;-56
2022/03/16 12:02:22;;;;;;;12.88;5.35;;;;;;;;;;5047255;28;20136;-62
2022/03/16 12:04:49;;;;;;;11.95;4.15;;;;;;;;;;5039091;28;20049;-56
2022/03/16 12:07:18;;;;;;;10.98;4.88;;;;;;;;;;5033471;28;20053;-60
2022/03/16 12:09:46;;;;;;;11.70;4.65;;;;;;;;;;5037748;28;20051;-56
2022/03/16 12:15:09;;;;;;;9.35;4.00;;;;;;;;;;5036608;28;20048;-56
2022/03/16 12:17:37;;;;;;;10.68;5.43;;;;;;;;;;5054763;28;20125;-57
2022/03/16 12:20:11;;;;;;;9.90;4.32;;;;;;;;;;5062232;28;20060;-54
2022/03/16 12:22:46;;;;;;;24.75;4.90;;;;;;;;;;5054401;28;20082;-57
2022/03/16 12:25:29;;;;;;;10.68;5.25;;;;;;;;;;5047823;28;20048;-58
2022/03/16 12:30:43;;;;;;;10.13;4.18;;;;;;;;;;5044333;28;20195;-54
2022/03/16 12:33:15;;;;;;;9.27;4.35;;;;;;;;;;5035040;28;20136;-55
2022/03/16 12:35:42;;;;;;;10.70;4.32;;;;;;;;;;5027837;28;20083;-58
2022/03/16 12:38:09;;;;;;;12.27;4.97;;;;;;;;;;5034924;28;20055;-59
2022/03/16 12:42:30;;;;;;;10.25;4.63;;;;;;;;;;5028070;28;20049;-61
2022/03/16 12:43:27;;;;;;;13.07;5.47;;;;;;;;;;5034338;28;20053;-60
2022/03/16 12:46:00;;;;;;;10.70;5.22;;;;;;;;;;5028199;28;20053;-59
2022/03/16 12:48:28;;;;;;;9.45;3.53;;;;;;;;;;5040753;28;20048;-64
2022/03/16 12:50:55;;;;;;;11.60;5.30;;;;;;;;;;5031321;28;20103;-58
2022/03/16 12:53:44;;;;;;;10.77;5.28;;;;;;;;;;5034790;28;20045;-58
2022/03/16 12:56:11;;;;;;;9.93;5.22;;;;;;;;;;5032869;28;20055;-59
2022/03/16 12:58:37;;;;;;;13.45;5.47;;;;;;;;;;5053605;28;20056;-59
2022/03/16 13:01:05;;;;;;;11.13;5.35;;;;;;;;;;5046318;28;20055;-58
2022/03/16 13:03:32;;;;;;;10.63;5.07;;;;;;;;;;5070893;28;20078;-61
2022/03/16 13:05:59;;;;;;;11.77;5.15;;;;;;;;;;5041156;28;20072;-60
2022/03/16 13:08:25;;;;;;;11.18;5.35;;;;;;;;;;5050442;28;20057;-63
2022/03/16 13:11:18;;;;;;;11.52;5.00;;;;;;;;;;5039320;28;20130;-54
2022/03/16 13:13:47;;;;;;;11.43;5.57;;;;;;;;;;5042974;28;20084;-57
2022/03/16 13:16:29;;;;;;;13.70;6.22;;;;;;;;;;5043879;28;20113;-56
2022/03/16 13:18:57;;;;;;;10.85;4.75;;;;;;;;;;5052529;28;20061;-54
2022/03/16 13:21:27;;;;;;;10.98;5.57;;;;;;;;;;5060096;28;20044;-58
2022/03/16 13:24:01;;;;;;;11.52;5.60;;;;;;;;;;5034111;28;20049;-58
2022/03/16 13:26:28;;;;;;;8.85;4.68;;;;;;;;;;5025635;28;20099;-61
2022/03/16 13:28:57;;;;;;;11.55;5.38;;;;;;;;;;5050305;28;20049;-58
2022/03/16 13:31:23;;;;;;;;;;;;;;;;;;5047349;28;20040;-61
2022/03/16 13:33:52;;;;;;;10.05;4.68;;;;;;;;;;5033598;28;19924;-56
2022/03/16 13:36:30;;;;;;;11.60;5.22;;;;;;;;;;5033755;28;20065;-58
2022/03/16 13:38:57;;;;;;;;;;;;;;;;;;5025215;28;20166;-61
2022/03/16 13:41:23;;;;;;;;;;;;;;;;;;5069646;28;19959;-61
2022/03/16 13:43:50;;;;;;;;;;;;;;;;;;5030517;28;19921;-60
2022/03/16 13:46:17;;;;;;;;;;;;;;;;;;5034591;28;19967;-59
2022/03/16 13:48:44;;;;;;;;;;;;;;;;;;5035534;28;19962;-58
2022/03/16 13:51:11;;;;;;;;;;;;;;;;;;5068882;28;19955;-55
2022/03/16 13:53:40;;;;;;;;;;;;;;;;;;5042972;28;19979;-60
2022/03/16 13:56:07;;;;;;;;;;;;;;;;;;5066100;28;20011;-56
2022/03/16 13:58:35;;;;;;;;;;;;;;;;;;5031045;28;19925;-59
2022/03/16 14:01:04;;;;;;;;;;;;;;;;;;5050815;28;19974;-58
2022/03/16 14:03:32;;;;;;;;;;;;;;;;;;5056120;28;19921;-62
2022/03/16 14:06:00;;;;;;;;;;;;;;;;;;5026032;28;19925;-59
2022/03/16 14:08:26;;;;;;;;;;;;;;;;;;5023373;28;19967;-57
2022/03/16 14:10:54;;;;;;;;;;;;;;;;;;5033651;28;19921;-58
2022/03/16 14:13:29;;;;;;;;;;;;;;;;;;5026559;28;19925;-62
2022/03/16 14:15:55;;;;;;;;;;;;;;;;;;5033807;28;19974;-63
2022/03/16 14:18:21;;;;;;;;;;;;;;;;;;5026107;28;19920;-59
2022/03/16 14:20:52;;;;;;;;;;;;;;;;;;5033959;28;19924;-59
2022/03/16 14:23:19;;;;;;;;;;;;;;;;;;5032366;28;19921;-61
2022/03/16 14:25:46;;;;;;;;;;;;;;;;;;5051004;28;19982;-60
2022/03/16 14:28:12;;;;;;;;;;;;;;;;;;5059530;28;19952;-62
2022/03/16 14:30:38;;;;;;;;;;;;;;;;;;5048908;28;19924;-59
2022/03/16 14:33:07;;;;;;;;;;;;;;;;;;5053099;28;20003;-57
2022/03/16 14:35:34;;;;;;;;;;;;;;;;;;5030636;28;19920;-56
2022/03/16 14:38:04;;;;;;;;;;;;;;;;;;5030983;28;19924;-59
2022/03/16 14:40:31;;;;;;;;;;;;;;;;;;5036017;28;19924;-54
2022/03/16 14:42:59;;;;;;;;;;;;;;;;;;5071365;28;19920;-56
2022/03/16 14:45:27;;;;;;;;;;;;;;;;;;5045933;28;19931;-58
2022/03/16 14:47:53;;;;;;;;;;;;;;;;;;5053421;28;19944;-58
2022/03/16 14:50:23;;;;;;;;;;;;;;;;;;5043721;28;19963;-55
2022/03/16 14:52:53;;;;;;;;;;;;;;;;;;5052759;28;19920;-54
2022/03/16 14:55:21;;;;;;;;;;;;;;;;;;5039295;28;19956;-55
2022/03/16 14:57:48;;;;;;;;;;;;;;;;;;5031787;28;19931;-59
2022/03/16 15:00:14;;;;;;;;;;;;;;;;;;5023825;28;19929;-59
2022/03/16 16:01:24;;;;;;;;;;;;;;;;;;5060888;23;19931;-60
2022/03/16 16:03:52;;;;;;;;;;;;;;;;;;5022705;28;19925;-62
2022/03/16 16:06:18;;;;;;;;;;;;;;;;;;5011178;28;19925;-62
2022/03/16 16:08:44;;;;;;;;;;;;;;;;;;5024535;28;20022;-63
2022/03/16 16:11:11;;;;;;;;;;;;;;;;;;5005649;28;19932;-63
2022/03/16 16:13:38;;;;;;;;;;;;;;;;;;5024511;28;19928;-62
2022/03/16 16:16:05;;;;;;;;;;;;;;;;;;5013984;28;20037;-59
2022/03/16 16:18:32;;;;;;;;;;;;;;;;;;5019605;28;19921;-57
2022/03/16 16:20:58;;;;;;;;;;;;;;;;;;5023321;28;19929;-57
2022/03/16 16:23:25;;;;;;;;;;;;;;;;;;5018941;28;19932;-56
2022/03/16 16:25:52;;;;;;;;;;;;;;;;;;5019889;28;19929;-58
2022/03/16 16:28:19;;;;;;;;;;;;;;;;;;5012019;28;19925;-57
2022/03/16 16:30:45;;;;;;;;;;;;;;;;;;5020081;28;19964;-56
2022/03/16 16:33:12;;;;;;;;;;;;;;;;;;5013426;28;19975;-57
2022/03/16 16:35:39;;;;;;;;;;;;;;;;;;5023181;28;19948;-57
2022/03/16 16:38:05;;;;;;;;;;;;;;;;;;5019140;28;19931;-54
2022/03/16 16:40:31;;;;;;;;;;;;;;;;;;5023406;28;19925;-56
2022/03/16 16:43:13;;;;;;;;;;;;;;;;;;5013144;28;19929;-56
2022/03/16 16:45:40;;;;;;;;;;;;;;;;;;5021465;28;19954;-60
2022/03/16 16:48:07;;;;;;;;;;;;;;;;;;5019651;28;19924;-60
2022/03/16 16:50:34;;;;;;;;;;;;;;;;;;5024679;28;19921;-60
2022/03/16 16:53:02;;;;;;;;;;;;;;;;;;5015344;28;19924;-56
2022/03/16 16:55:28;;;;;;;;;;;;;;;;;;5023179;28;19937;-56
2022/03/16 16:57:55;;;;;;;;;;;;;;;;;;5027169;28;19921;-58
2022/03/16 17:00:21;;;;;;;;;;;;;;;;;;5020646;28;20022;-55
2022/03/16 17:02:52;;;;;;;;;;;;;;;;;;5038590;28;20027;-59
2022/03/16 17:05:19;;;;;;;;;;;;;;;;;;5056045;28;19920;-56
2022/03/16 17:07:47;;;;;;;;;;;;;;;;;;5060461;28;19977;-57
2022/03/16 17:10:13;;;;;;;;;;;;;;;;;;5079892;28;20022;-57
2022/03/16 17:12:40;;;;;;;;;;;;;;;;;;5063659;28;19925;-61
2022/03/16 17:15:06;;;;;;;;;;;;;;;;;;5078054;28;19951;-59
2022/03/16 17:17:33;;;;;;;;;;;;;;;;;;5084166;28;19924;-58
2022/03/16 17:20:00;;;;;;;;;;;;;;;;;;5050965;28;19924;-59
2022/03/16 17:22:28;;;;;;;;;;;;;;;;;;5066606;28;19973;-57
2022/03/16 17:24:55;;;;;;;;;;;;;;;;;;5051736;28;19924;-55
2022/03/16 17:27:21;;;;;;;;;;;;;;;;;;5086904;28;19920;-57
2022/03/16 17:29:48;;;;;;;;;;;;;;;;;;5056251;28;20040;-62
2022/03/16 17:32:16;;;;;;;;;;;;;;;;;;5067960;28;19924;-64
2022/03/16 17:34:44;;;;;;;;;;;;;;;;;;5079789;28;19924;-58
2022/03/16 17:37:10;;;;;;;;;;;;;;;;;;5067691;28;19982;-58
2022/03/16 17:39:40;;;;;;;;;;;;;;;;;;5067467;28;20011;-58
2022/03/16 17:47:38;;;;;;;;;;;;;;;;;;5069518;28;19927;-57
2022/03/16 17:50:04;;;;;;;;;;;;;;;;;;5072037;28;20011;-59
2022/03/16 17:52:31;;;;;;;;;;;;;;;;;;5067119;28;19920;-59
2022/03/16 17:54:57;;;;;;;;;;;;;;;;;;5063755;28;20027;-53
2022/03/16 17:57:24;;;;;;;;;;;;;;;;;;5081192;28;20084;-61
2022/03/16 17:59:50;;;;;;;;;;;;;;;;;;5058972;28;19924;-56
2022/03/16 18:02:16;;;;;;;;;;;;;;;;;;5054316;28;19965;-56
2022/03/16 18:04:43;;;;;;;;;;;;;;;;;;5046765;28;19925;-56
2022/03/16 18:07:13;;;;;;;;;;;;;;;;;;5011956;28;19924;-57
2022/03/16 18:15:06;;;;;;;;;;;;;;;;;;5058789;28;19923;-57
2022/03/16 18:17:34;;;;;;;;;;;;;;;;;;5038404;28;19992;-59
2022/03/16 18:20:00;;;;;;;;;;;;;;;;;;5043632;28;19942;-57
2022/03/16 18:22:27;;;;;;;;;;;;;;;;;;5017270;28;19931;-57
2022/03/16 18:24:54;;;;;;;;;;;;;;;;;;5038898;28;19925;-54
2022/03/16 18:27:20;;;;;;;;;;;;;;;;;;5037253;28;19921;-54
2022/03/16 18:29:47;;;;;;;;;;;;;;;;;;5039483;28;19929;-55
2022/03/16 18:32:14;;;;;;;;;;;;;;;;;;5038306;28;19920;-61
2022/03/16 18:34:40;;;;;;;;;;;;;;;;;;5060632;28;19978;-59
2022/03/16 18:37:07;;;;;;;;;;;;;;;;;;5014522;28;19924;-55
2022/03/16 18:39:34;;;;;;;;;;;;;;;;;;5013659;28;19932;-59
2022/03/16 18:42:07;;;;;;;;;;;;;;;;;;5059872;28;19936;-55
2022/03/16 18:44:36;;;;;;;;;;;;;;;;;;5016246;28;19928;-61
2022/03/16 18:47:03;;;;;;;;;;;;;;;;;;5039435;28;19936;-56
2022/03/16 18:49:29;;;;;;;;;;;;;;;;;;5023512;28;19936;-56
2022/03/16 18:52:16;;;;;;;;;;;;;;;;;;5036110;28;19960;-57
2022/03/16 18:54:43;;;;;;;;;;;;;;;;;;5014592;28;19925;-56
2022/03/16 18:57:09;;;;;;;;;;;;;;;;;;5024627;28;19971;-57
2022/03/16 18:59:35;;;;;;;;;;;;;;;;;;5020247;28;19921;-60
2022/03/16 19:02:02;;;;;;;;;;;;;;;;;;5039377;28;19987;-59
2022/03/16 19:04:29;;;;;;;;;;;;;;;;;;5038957;28;19924;-58
2022/03/16 19:06:56;;;;;;;;;;;;;;;;;;5048482;28;19920;-56
2022/03/16 19:09:24;;;;;;;;;;;;;;;;;;5042751;28;19939;-55
2022/03/16 19:14:35;;;;;;;;;;;;;;;;;;5042479;28;19917;-59
2022/03/16 19:17:02;;;;;;;;;;;;;;;;;;5046383;28;19971;-56
2022/03/16 19:19:28;;;;;;;;;;;;;;;;;;5040580;28;19967;-58
2022/03/16 19:21:55;;;;;;;;;;;;;;;;;;5044267;28;19927;-56
2022/03/16 19:24:22;;;;;;;;;;;;;;;;;;5046610;28;20013;-59
2022/03/16 19:26:49;;;;;;;;;;;;;;;;;;5046419;28;19925;-53
2022/03/16 19:29:15;;;;;;;;;;;;;;;;;;5049642;28;19923;-61
2022/03/16 19:31:47;;;;;;;;;;;;;;;;;;5051685;28;19928;-59
2022/03/16 19:34:14;;;;;;;;;;;;;;;;;;5042912;28;19924;-58
2022/03/16 19:36:42;;;;;;;;;;;;;;;;;;5049526;28;19966;-57
2022/03/16 19:39:12;;;;;;;;;;;;;;;;;;5039277;28;19921;-55
2022/03/16 19:41:38;;;;;;;;;;;;;;;;;;5043567;28;19928;-57
2022/03/16 19:44:05;;;;;;;;;;;;;;;;;;5048551;28;19924;-58
2022/03/16 19:46:35;;;;;;;;;;;;;;;;;;5042999;28;19928;-51
2022/03/16 19:49:01;;;;;;;;;;;;;;;;;;5048199;28;20022;-53
2022/03/16 19:51:29;;;;;;;;;;;;;;;;;;5046594;28;19924;-55